Airfield :
LOGIN :

Register | Disclaimer

   EN    FR    IT 

 










Legend :    VFR   Marginal VFR   IFR   Intensive IFR   Very Intensive IFR
Visi :
Ceiling :
>= 8 km
>= 3000ft
5 to 8 km
1000 to 3000 ft
1500m to 5 km
500 to 1000 ft
800 to 1500m
200 to 500 ft
< 800m
< 200 ft
Symbols :   Thunderstorms  Fog  Heavy snow  Heavy precipitations  Wind > 20 kt
SIGMETs :     Misc.  Thunderstorms  Icing  Turbulence  Mountain Waves  Volcanic Ashes







- Airport Elevation : 364 ft
- IATA code : FRA


EDDF - Frankfurt Int.

CURRENT METAR :
  • 122220Z 14005KT 9999 -SHRA FEW004 SCT015CB 13/12 Q1019 RESHRA NOSIG

EXPIRED METARs :
  • 122150Z 13002KT 9999 FEW004 13/13 Q1019 NOSIG
  • 122120Z VRB02KT 9999 VCSH FEW004 FEW015CB 13/13 Q1019 NOSIG
  • 122050Z VRB02KT CAVOK 13/13 Q1019 NOSIG
  • 122020Z 17003KT 120V200 CAVOK 13/13 Q1018 NOSIG
  • 121950Z VRB01KT 9999 -SHRA FEW015 FEW025TCU 12/12 Q1018 NOSIG

TAF TAF EDDF
Valid from the 12 at 18:00 until the 14 at 00:00 UTC


121700Z 1218/1324 20005KT 9999 SCT030
PROB40
TEMPO 1218/1220 4000 SHRA BKN030TCU
TEMPO 1300/1308 4000 RA BKN014
BECMG 1309/1311 23010KT
PROB30
TEMPO 1312/1316 23015G25KT
BECMG 1317/1320 21005KT
No reported NOTAMs for that airfield.



MET'MAP, your aeronautical weather chart ! - Copyright ORBIFLY December 2007 - Disclaimer

ORBIFLY MET'MAP TEAM :

Programming & Development : Alexandra Zaïnal
Concept & Development : Baudouin d'Aumeries
Co-Development & Prog : Marc-Olivier Méhu
Technical & hardware support : Manuel Goepfert

Contact : metmap@orbifly.com




SOURCES & CREDITS :

   NOAA